createdAt,value
2023-01-05T00:01:51.422Z,37.33
2023-01-05T00:04:20.145Z,36.73
2023-01-05T00:06:50.836Z,32.07
2023-01-05T00:09:19.967Z,37.73
2023-01-05T00:12:05.834Z,33.27
2023-01-05T00:14:52.189Z,36.00
2023-01-05T00:17:39.672Z,38.57
2023-01-05T00:20:31.542Z,32.93
2023-01-05T00:23:01.656Z,33.63
2023-01-05T00:25:31.355Z,33.97
2023-01-05T00:27:59.949Z,34.43
2023-01-05T00:30:31.027Z,34.20
2023-01-05T00:32:59.356Z,30.23
2023-01-05T00:35:28.167Z,32.28
2023-01-05T00:37:56.506Z,29.03
2023-01-05T00:40:26.234Z,27.70
2023-01-05T00:42:54.452Z,31.37
2023-01-05T00:45:23.087Z,30.73
2023-01-05T00:47:53.859Z,32.87
2023-01-05T00:50:23.370Z,28.27
2023-01-05T00:52:51.839Z,32.57
2023-01-05T00:55:20.282Z,31.57
2023-01-05T00:57:50.039Z,31.67
2023-01-05T01:00:20.190Z,33.78
2023-01-05T01:02:48.669Z,27.03
2023-01-05T01:05:16.942Z,31.40
2023-01-05T01:07:45.346Z,30.90
2023-01-05T01:10:14.117Z,33.33
2023-01-05T01:15:12.613Z,29.40
2023-01-05T01:17:40.975Z,29.53
2023-01-05T01:20:10.636Z,26.97
2023-01-05T01:22:38.933Z,33.90
2023-01-05T01:25:07.853Z,28.27
2023-01-05T01:27:36.155Z,30.37
2023-01-05T01:30:05.271Z,29.60
2023-01-05T01:32:34.946Z,33.20
2023-01-05T01:35:03.202Z,26.23
2023-01-05T01:37:31.491Z,24.13
2023-01-05T01:39:59.792Z,25.27
2023-01-05T01:42:28.160Z,27.27
2023-01-05T01:44:58.737Z,30.10
2023-01-05T01:47:36.336Z,28.43
2023-01-05T01:50:11.470Z,27.33
2023-01-05T01:52:40.572Z,31.77
2023-01-05T01:55:09.732Z,28.57
2023-01-05T01:57:38.496Z,27.47
2023-01-05T02:00:09.238Z,24.70
2023-01-05T02:02:38.963Z,32.37
2023-01-05T02:05:12.363Z,27.57
2023-01-05T02:07:45.671Z,23.03
2023-01-05T02:10:15.255Z,28.23
2023-01-05T02:12:59.911Z,21.50
2023-01-05T02:15:37.895Z,26.27
2023-01-05T02:18:22.004Z,29.23
2023-01-05T02:21:14.928Z,28.63
2023-01-05T02:24:13.223Z,23.60
2023-01-05T02:27:19.865Z,25.97
2023-01-05T02:30:35.000Z,19.87
2023-01-05T02:33:12.651Z,28.07
2023-01-05T02:35:48.024Z,24.87
2023-01-05T02:38:24.806Z,29.90
2023-01-05T02:40:58.505Z,30.23
2023-01-05T02:43:28.497Z,26.10
2023-01-05T02:45:56.892Z,23.03
2023-01-05T02:48:26.886Z,26.37
2023-01-05T02:51:01.381Z,23.93
2023-01-05T02:53:33.895Z,25.97
2023-01-05T02:56:07.491Z,26.37
2023-01-05T02:58:40.402Z,25.40
2023-01-05T03:01:12.309Z,26.23
2023-01-05T03:03:45.015Z,23.60
2023-01-05T03:06:17.428Z,23.50
2023-01-05T03:08:52.106Z,22.50
2023-01-05T03:11:38.068Z,22.33
2023-01-05T03:14:14.217Z,23.50
2023-01-05T03:16:42.528Z,26.67
2023-01-05T03:19:31.377Z,22.90
2023-01-05T03:22:20.262Z,24.63
2023-01-05T03:25:07.369Z,30.50
2023-01-05T03:27:54.744Z,21.50
2023-01-05T03:30:45.168Z,23.37
2023-01-05T03:33:39.678Z,23.70
2023-01-05T03:36:12.374Z,26.43
2023-01-05T03:38:44.003Z,25.43
2023-01-05T03:41:17.901Z,22.03
2023-01-05T03:43:48.945Z,26.00
2023-01-05T03:46:21.339Z,30.03
2023-01-05T03:48:50.132Z,23.20
2023-01-05T03:51:19.825Z,25.60
2023-01-05T03:53:48.010Z,24.60
2023-01-05T03:56:16.315Z,27.07
2023-01-05T03:58:44.607Z,31.53
2023-01-05T04:01:13.046Z,29.60
2023-01-05T04:03:41.919Z,27.63
2023-01-05T04:06:10.390Z,27.07
2023-01-05T04:08:40.100Z,27.57
2023-01-05T04:11:17.226Z,30.90
2023-01-05T04:13:45.667Z,28.37
2023-01-05T04:16:14.123Z,28.40
2023-01-05T04:18:42.441Z,32.87
2023-01-05T04:21:10.780Z,26.53
2023-01-05T04:23:40.641Z,25.53
2023-01-05T04:26:09.263Z,26.50
2023-01-05T04:28:37.672Z,27.30
2023-01-05T04:31:06.264Z,26.20
2023-01-05T04:33:34.614Z,23.67
2023-01-05T04:36:02.934Z,22.00
2023-01-05T04:38:31.183Z,24.17
2023-01-05T04:41:00.824Z,26.90
2023-01-05T04:43:29.086Z,26.40
2023-01-05T04:45:57.387Z,22.70
2023-01-05T04:48:25.811Z,22.23
2023-01-05T04:50:55.356Z,21.37
2023-01-05T04:53:23.923Z,22.93
2023-01-05T04:55:52.280Z,17.90
2023-01-05T04:58:22.344Z,23.43
2023-01-05T05:00:51.043Z,29.77
2023-01-05T05:03:19.461Z,24.63
2023-01-05T05:05:47.830Z,24.87
2023-01-05T05:08:16.042Z,26.63
2023-01-05T05:10:44.374Z,25.43
2023-01-05T05:13:12.604Z,27.23
2023-01-05T05:15:42.289Z,27.27
2023-01-05T05:18:10.570Z,24.97
2023-01-05T05:20:39.370Z,27.07
2023-01-05T05:23:07.678Z,25.70
2023-01-05T05:25:35.949Z,19.97
2023-01-05T05:28:04.340Z,23.47
2023-01-05T05:30:32.712Z,25.20
2023-01-05T05:33:02.413Z,26.77
2023-01-05T05:35:30.905Z,24.50
2023-01-05T05:37:59.183Z,31.03
2023-01-05T05:40:28.403Z,25.27
2023-01-05T05:42:56.933Z,26.67
2023-01-05T05:45:25.187Z,26.60
2023-01-05T05:47:53.530Z,25.77
2023-01-05T05:50:23.193Z,30.27
2023-01-05T05:52:51.536Z,30.57
2023-01-05T05:55:19.823Z,31.07
2023-01-05T05:57:48.049Z,36.43
2023-01-05T06:00:17.249Z,24.93
2023-01-05T06:02:45.663Z,31.93
2023-01-05T06:05:14.110Z,35.67
2023-01-05T06:07:43.719Z,37.83
2023-01-05T06:10:12.163Z,41.17
2023-01-05T06:12:40.624Z,35.57
2023-01-05T06:15:10.196Z,42.90
2023-01-05T06:17:38.525Z,39.20
2023-01-05T06:20:08.643Z,38.00
2023-01-05T06:22:37.026Z,42.63
2023-01-05T06:25:07.418Z,39.17
2023-01-05T06:27:35.824Z,35.53
2023-01-05T06:30:04.324Z,36.83
2023-01-05T06:32:32.831Z,42.97
2023-01-05T06:35:01.114Z,39.40
2023-01-05T06:37:29.417Z,35.53
2023-01-05T06:39:57.697Z,34.77
2023-01-05T06:42:27.430Z,36.87
2023-01-05T06:44:55.720Z,30.27
2023-01-05T06:47:24.011Z,40.97
2023-01-05T06:49:52.277Z,33.70
2023-01-05T06:52:20.507Z,37.77
2023-01-05T06:54:48.782Z,33.53
2023-01-05T06:57:17.171Z,32.40
2023-01-05T06:59:47.084Z,32.45
2023-01-05T07:02:16.086Z,30.83
2023-01-05T07:04:44.500Z,36.63
2023-01-05T07:07:14.093Z,31.00
2023-01-05T07:09:42.684Z,31.58
2023-01-05T07:12:10.941Z,27.37
2023-01-05T07:14:39.317Z,31.73
2023-01-05T07:17:09.053Z,31.30
2023-01-05T07:19:37.431Z,30.37
2023-01-05T07:22:05.915Z,31.13
2023-01-05T07:24:34.338Z,32.17
2023-01-05T07:27:09.254Z,28.47
2023-01-05T07:29:38.198Z,34.20
2023-01-05T07:32:08.564Z,30.00
2023-01-05T07:34:37.393Z,31.07
2023-01-05T07:37:05.684Z,32.83
2023-01-05T07:39:34.022Z,31.27
2023-01-05T07:42:02.327Z,30.07
2023-01-05T07:44:30.623Z,30.83
2023-01-05T07:46:59.342Z,34.40
2023-01-05T07:49:30.108Z,30.03
2023-01-05T07:51:58.479Z,32.93
2023-01-05T07:54:27.532Z,29.80
2023-01-05T07:56:55.823Z,31.97
2023-01-05T07:59:24.143Z,26.97
2023-01-05T08:01:52.534Z,27.30
2023-01-05T08:04:21.084Z,27.43
2023-01-05T08:06:52.565Z,26.80
2023-01-05T08:09:38.283Z,25.87
2023-01-05T08:12:06.952Z,29.33
2023-01-05T08:14:35.324Z,26.70
2023-01-05T08:17:03.635Z,24.07
2023-01-05T08:19:32.032Z,25.50
2023-01-05T08:22:01.873Z,27.33
2023-01-05T08:24:30.159Z,27.33
2023-01-05T08:26:58.539Z,28.87
2023-01-05T08:29:27.092Z,26.67
2023-01-05T08:31:55.421Z,27.87
2023-01-05T08:34:30.039Z,23.87
2023-01-05T08:37:02.674Z,24.60
2023-01-05T08:39:30.979Z,23.13
2023-01-05T08:42:02.804Z,24.83
2023-01-05T08:44:31.389Z,24.67
2023-01-05T08:46:59.759Z,27.30
2023-01-05T08:49:28.067Z,29.10
2023-01-05T08:51:56.308Z,22.20
2023-01-05T08:54:26.015Z,25.47
2023-01-05T08:56:54.425Z,25.03
2023-01-05T08:59:22.853Z,32.83
2023-01-05T09:01:51.476Z,26.87
2023-01-05T09:04:30.035Z,24.30
2023-01-05T09:06:58.484Z,25.37
2023-01-05T09:09:29.875Z,25.90
2023-01-05T09:12:01.346Z,25.30
2023-01-05T09:14:29.738Z,33.37
2023-01-05T09:17:07.032Z,28.13
2023-01-05T09:19:37.731Z,28.20
2023-01-05T09:22:06.126Z,26.17
2023-01-05T09:24:36.916Z,26.97
2023-01-05T09:27:07.304Z,29.33
2023-01-05T09:29:35.603Z,25.53
2023-01-05T09:32:03.945Z,29.00
2023-01-05T09:34:32.233Z,26.67
2023-01-05T09:37:00.527Z,25.80
2023-01-05T09:39:28.965Z,29.98
2023-01-05T09:42:02.542Z,25.10
2023-01-05T09:44:32.884Z,26.90
2023-01-05T09:47:04.638Z,24.50
2023-01-05T09:49:35.192Z,23.97
2023-01-05T09:52:09.432Z,27.53
2023-01-05T09:54:39.740Z,27.87
2023-01-05T09:57:17.398Z,22.47
2023-01-05T09:59:48.001Z,23.80
2023-01-05T10:02:26.662Z,25.83
2023-01-05T10:04:56.666Z,27.17
2023-01-05T10:07:39.337Z,25.83
2023-01-05T10:10:16.554Z,23.60
2023-01-05T10:13:05.476Z,23.00
2023-01-05T10:15:42.023Z,22.70
2023-01-05T10:18:13.346Z,23.17
2023-01-05T10:20:53.565Z,26.50
2023-01-05T10:23:45.569Z,22.07
2023-01-05T10:26:21.046Z,23.30
2023-01-05T10:28:56.284Z,27.47
2023-01-05T10:31:28.293Z,30.03
2023-01-05T10:34:07.139Z,26.07
2023-01-05T10:37:08.773Z,23.93
2023-01-05T10:40:00.473Z,25.00
2023-01-05T10:42:40.889Z,25.63
2023-01-05T10:45:12.881Z,25.10
2023-01-05T10:47:42.209Z,23.50
2023-01-05T10:50:38.491Z,23.60
2023-01-05T10:53:12.482Z,25.33
2023-01-05T10:55:49.802Z,27.97
2023-01-05T10:58:26.027Z,22.27
2023-01-05T11:00:57.521Z,25.00
2023-01-05T11:04:14.895Z,27.70
2023-01-05T11:06:25.147Z,24.10
2023-01-05T11:08:53.838Z,23.80
2023-01-05T11:11:25.034Z,26.10
2023-01-05T11:13:57.449Z,22.83
2023-01-05T11:16:29.343Z,26.00
2023-01-05T11:19:00.452Z,24.67
2023-01-05T11:21:43.463Z,28.47
2023-01-05T11:24:29.703Z,24.97
2023-01-05T11:27:00.028Z,23.17
2023-01-05T11:29:28.773Z,26.03
2023-01-05T11:32:00.860Z,21.37
2023-01-05T11:34:47.681Z,24.33
2023-01-05T11:37:25.177Z,23.73
2023-01-05T11:39:55.785Z,24.23
2023-01-05T11:42:32.271Z,20.43
2023-01-05T11:45:03.450Z,25.10
2023-01-05T11:47:43.276Z,24.40
2023-01-05T11:50:21.696Z,24.87
2023-01-05T11:52:51.686Z,22.93
2023-01-05T11:55:39.925Z,24.30
2023-01-05T11:58:20.568Z,27.23
2023-01-05T12:01:39.723Z,24.30
2023-01-05T12:04:30.463Z,23.00
2023-01-05T12:07:10.368Z,23.83
2023-01-05T12:09:40.308Z,22.93
2023-01-05T12:12:22.482Z,23.60
2023-01-05T12:15:09.081Z,21.63
2023-01-05T12:17:48.890Z,25.17
2023-01-05T12:20:49.629Z,22.27
2023-01-05T12:23:50.652Z,24.20
2023-01-05T12:26:27.606Z,24.00
2023-01-05T12:35:42.604Z,20.23
2023-01-05T12:38:33.441Z,22.63
2023-01-05T12:41:27.419Z,21.70
2023-01-05T12:44:10.573Z,21.73
2023-01-05T12:46:49.676Z,21.70
2023-01-05T12:49:22.854Z,23.97
2023-01-05T12:52:01.025Z,24.98
2023-01-05T12:54:39.467Z,22.37
2023-01-05T12:57:13.522Z,23.27
2023-01-05T12:59:49.932Z,22.03
2023-01-05T13:02:30.158Z,20.20
2023-01-05T13:05:03.731Z,22.03
2023-01-05T13:07:37.296Z,19.53
2023-01-05T13:10:16.260Z,18.10
2023-01-05T13:12:44.865Z,19.40
2023-01-05T13:15:19.990Z,16.90
2023-01-05T13:17:50.386Z,16.40
2023-01-05T13:20:28.356Z,22.10
2023-01-05T13:23:04.431Z,16.80
2023-01-05T13:25:40.775Z,23.27
2023-01-05T13:28:27.203Z,20.27
2023-01-05T13:31:28.688Z,20.03
2023-01-05T13:34:19.783Z,19.67
2023-01-05T13:37:20.165Z,14.40
2023-01-05T13:40:23.337Z,15.27
2023-01-05T13:46:07.986Z,17.10
2023-01-05T13:49:06.344Z,20.23
2023-01-05T13:51:54.501Z,16.00
2023-01-05T13:54:43.585Z,15.80
2023-01-05T13:57:26.605Z,17.03
2023-01-05T14:00:06.598Z,19.90
2023-01-05T14:02:39.545Z,17.47
2023-01-05T14:05:16.405Z,18.83
2023-01-05T14:07:44.780Z,18.73
2023-01-05T14:10:23.856Z,19.50
2023-01-05T14:12:55.305Z,18.80
2023-01-05T14:15:42.636Z,18.58
2023-01-05T14:18:11.873Z,20.87
2023-01-05T14:20:46.842Z,21.70
2023-01-05T14:23:52.436Z,19.47
2023-01-05T14:26:59.163Z,21.13
2023-01-05T14:30:09.782Z,22.60
2023-01-05T14:32:41.472Z,26.93
2023-01-05T14:35:37.160Z,19.53
2023-01-05T14:38:08.655Z,27.07
2023-01-05T14:40:39.851Z,22.43
2023-01-05T14:43:21.856Z,24.73
2023-01-05T14:46:02.541Z,29.93
2023-01-05T14:48:35.039Z,24.53
2023-01-05T14:51:21.103Z,27.47
2023-01-05T14:53:51.287Z,30.97
2023-01-05T14:56:23.232Z,26.30
2023-01-05T14:59:00.950Z,27.30
2023-01-05T15:01:35.432Z,29.43
2023-01-05T15:04:09.839Z,29.17
2023-01-05T15:06:50.519Z,25.37
2023-01-05T15:10:04.856Z,28.57
2023-01-05T15:12:48.274Z,27.83
2023-01-05T15:15:45.024Z,29.43
2023-01-05T15:18:36.727Z,27.97
2023-01-05T15:21:44.836Z,28.13
2023-01-05T15:24:53.236Z,22.97
2023-01-05T15:27:37.659Z,22.20
2023-01-05T15:30:23.031Z,25.03
2023-01-05T15:32:58.619Z,22.90
2023-01-05T15:35:35.980Z,23.60
2023-01-05T15:38:21.758Z,26.80
2023-01-05T15:40:53.645Z,21.37
2023-01-05T15:43:22.609Z,22.93
2023-01-05T15:45:53.604Z,27.13
2023-01-05T15:48:28.665Z,23.73
2023-01-05T15:50:59.579Z,26.37
2023-01-05T15:53:33.021Z,26.17
2023-01-05T15:56:02.211Z,20.80
2023-01-05T15:58:32.932Z,22.93
2023-01-05T16:01:06.727Z,24.17
2023-01-05T16:03:37.424Z,19.93
2023-01-05T16:06:10.104Z,23.97
2023-01-05T16:08:44.417Z,24.87
2023-01-05T16:11:16.845Z,23.17
2023-01-05T16:13:49.766Z,23.23
2023-01-05T16:16:49.876Z,21.27
2023-01-05T16:19:13.273Z,20.13
2023-01-05T16:21:45.442Z,18.87
2023-01-05T16:24:24.224Z,22.63
2023-01-05T16:26:52.546Z,25.50
2023-01-05T16:29:32.644Z,26.83
2023-01-05T16:32:01.561Z,22.67
2023-01-05T16:34:31.562Z,24.07
2023-01-05T16:37:02.153Z,20.70
2023-01-05T16:39:38.380Z,21.93
2023-01-05T16:42:40.004Z,20.63
2023-01-05T16:45:15.477Z,19.57
2023-01-05T16:47:44.683Z,27.80
2023-01-05T16:51:00.700Z,23.60
2023-01-05T16:53:29.355Z,22.67
2023-01-05T16:56:00.724Z,19.23
2023-01-05T16:58:38.465Z,21.83
2023-01-05T17:01:25.744Z,19.83
2023-01-05T17:03:54.976Z,20.60
2023-01-05T17:06:28.695Z,20.77
2023-01-05T17:09:02.824Z,23.63
2023-01-05T17:11:41.493Z,22.93
2023-01-05T17:14:11.584Z,24.42
2023-01-05T17:16:40.019Z,23.43
2023-01-05T17:19:15.849Z,22.27
2023-01-05T17:21:58.842Z,20.03
2023-01-05T17:24:28.574Z,25.03
2023-01-05T17:26:58.331Z,20.83
2023-01-05T17:29:27.936Z,20.83
2023-01-05T17:31:57.282Z,23.20
2023-01-05T17:34:25.822Z,21.10
2023-01-05T17:36:56.852Z,24.53
2023-01-05T17:39:28.770Z,21.00
2023-01-05T17:42:21.254Z,21.23
2023-01-05T17:44:52.364Z,21.23
2023-01-05T17:47:20.804Z,25.20
2023-01-05T17:49:49.074Z,29.40
2023-01-05T17:52:17.614Z,26.33
2023-01-05T17:54:45.889Z,20.73
2023-01-05T17:57:15.733Z,19.37
2023-01-05T17:59:44.707Z,23.67
2023-01-05T18:02:13.146Z,20.70
2023-01-05T18:04:41.610Z,17.13
2023-01-05T18:07:09.912Z,23.10
2023-01-05T18:09:38.854Z,20.50
2023-01-05T18:12:07.765Z,21.70
2023-01-05T18:17:07.985Z,22.77
2023-01-05T18:19:36.420Z,20.70
2023-01-05T18:22:04.815Z,21.67
2023-01-05T18:24:33.041Z,25.70
2023-01-05T18:27:01.407Z,27.73
2023-01-05T18:29:29.649Z,21.07
2023-01-05T18:31:59.312Z,22.30
2023-01-05T18:34:27.546Z,20.53
2023-01-05T18:37:01.978Z,18.83
2023-01-05T18:39:34.712Z,26.83
2023-01-05T18:42:03.029Z,18.47
2023-01-05T18:44:31.342Z,23.77
2023-01-05T18:47:00.967Z,21.20
2023-01-05T18:49:29.347Z,17.97
2023-01-05T18:51:57.653Z,16.87
2023-01-05T18:54:26.392Z,17.20
2023-01-05T18:56:54.645Z,16.90
2023-01-05T18:59:23.271Z,19.07
2023-01-05T19:01:51.678Z,17.23
2023-01-05T19:04:21.444Z,17.40
2023-01-05T19:06:49.747Z,17.97
2023-01-05T19:09:18.033Z,14.53
2023-01-05T19:11:47.652Z,17.77
2023-01-05T19:14:18.042Z,17.53
2023-01-05T19:16:47.270Z,15.25
2023-01-05T19:19:16.063Z,13.70
2023-01-05T19:21:48.969Z,15.63
2023-01-05T19:24:18.593Z,16.07
2023-01-05T19:26:48.903Z,15.73
2023-01-05T19:29:19.023Z,19.10
2023-01-05T19:31:48.347Z,17.03
2023-01-05T19:34:19.537Z,15.47
2023-01-05T19:36:49.580Z,18.07
2023-01-05T19:39:19.278Z,19.83
2023-01-05T19:41:51.301Z,17.35
2023-01-05T19:44:22.381Z,13.97
2023-01-05T19:46:52.346Z,16.50
2023-01-05T19:49:22.003Z,16.37
2023-01-05T19:51:52.033Z,16.27
2023-01-05T19:54:22.524Z,15.90
2023-01-05T19:56:51.055Z,14.00
2023-01-05T19:59:21.671Z,16.67
2023-01-05T20:01:50.171Z,13.60
2023-01-05T20:04:18.780Z,13.70
2023-01-05T20:06:47.517Z,15.73
2023-01-05T20:09:19.289Z,13.40
2023-01-05T20:11:49.794Z,13.47
2023-01-05T20:14:20.852Z,13.53
2023-01-05T20:16:50.816Z,14.13
2023-01-05T20:19:20.000Z,13.00
2023-01-05T20:21:49.375Z,13.73
2023-01-05T20:24:21.867Z,12.37
2023-01-05T20:26:51.046Z,13.57
2023-01-05T20:29:21.116Z,12.30
2023-01-05T20:31:54.156Z,16.27
2023-01-05T20:34:25.341Z,11.77
2023-01-05T20:36:53.626Z,12.57
2023-01-05T20:39:23.681Z,12.23
2023-01-05T20:41:54.079Z,14.20
2023-01-05T20:44:24.571Z,13.33
2023-01-05T20:46:54.674Z,13.80
2023-01-05T20:49:23.544Z,13.33
2023-01-05T20:51:51.808Z,13.88
2023-01-05T20:54:20.470Z,13.07
2023-01-05T20:56:50.212Z,13.87
2023-01-05T20:59:22.919Z,12.33
2023-01-05T21:01:51.895Z,14.63
2023-01-05T21:04:20.809Z,14.48
2023-01-05T21:06:51.450Z,11.20
2023-01-05T21:09:20.188Z,11.30
2023-01-05T21:11:49.896Z,13.67
2023-01-05T21:14:19.768Z,11.98
2023-01-05T21:16:50.757Z,11.37
2023-01-05T21:19:22.011Z,15.73
2023-01-05T21:21:51.547Z,13.77
2023-01-05T21:24:19.851Z,12.57
2023-01-05T21:26:49.647Z,12.03
2023-01-05T21:29:20.619Z,16.20
2023-01-05T21:31:49.159Z,12.43
2023-01-05T21:34:17.998Z,10.67
2023-01-05T21:36:48.581Z,10.87
2023-01-05T21:39:19.948Z,14.57
2023-01-05T21:42:07.981Z,11.23
2023-01-05T21:44:36.756Z,10.77
2023-01-05T21:47:06.764Z,12.57
2023-01-05T21:49:35.443Z,10.23
2023-01-05T21:52:22.026Z,11.53
2023-01-05T21:55:07.650Z,11.47
2023-01-05T21:57:40.793Z,12.50
2023-01-05T22:00:10.943Z,11.37
2023-01-05T22:02:39.332Z,13.97
2023-01-05T22:05:08.489Z,11.67
2023-01-05T22:07:36.945Z,11.87
2023-01-05T22:10:05.927Z,13.03
2023-01-05T22:12:34.220Z,10.03
2023-01-05T22:15:04.238Z,14.10
2023-01-05T22:17:34.235Z,10.80
2023-01-05T22:20:02.470Z,14.27
2023-01-05T22:22:30.796Z,11.00
2023-01-05T22:24:59.050Z,12.83
2023-01-05T22:27:27.341Z,11.60
2023-01-05T22:29:55.562Z,12.70
2023-01-05T22:32:25.313Z,12.53
2023-01-05T22:34:53.598Z,11.00
2023-01-05T22:37:21.836Z,12.37
2023-01-05T22:39:50.116Z,10.80
2023-01-05T22:42:18.354Z,13.37
2023-01-05T22:44:46.892Z,11.03
2023-01-05T22:47:15.223Z,10.80
2023-01-05T22:49:44.950Z,15.27
2023-01-05T22:52:13.319Z,13.63
2023-01-05T22:54:41.659Z,12.47
2023-01-05T22:57:09.947Z,14.27
2023-01-05T22:59:38.287Z,12.20
2023-01-05T23:02:06.584Z,13.07
2023-01-05T23:04:35.019Z,10.47
2023-01-05T23:07:04.654Z,12.13
2023-01-05T23:09:32.959Z,15.53
2023-01-05T23:12:01.741Z,12.73
2023-01-05T23:14:30.528Z,16.70
2023-01-05T23:16:58.852Z,17.83
2023-01-05T23:19:27.154Z,16.30
2023-01-05T23:21:55.496Z,14.03
2023-01-05T23:24:25.308Z,13.77
2023-01-05T23:26:53.619Z,12.27
2023-01-05T23:29:21.902Z,11.57
2023-01-05T23:31:50.215Z,11.03
2023-01-05T23:34:18.585Z,13.37
2023-01-05T23:36:46.844Z,9.73
2023-01-05T23:39:15.132Z,13.30
2023-01-05T23:41:45.084Z,10.00
2023-01-05T23:44:14.630Z,12.17
2023-01-05T23:46:42.937Z,13.73
2023-01-05T23:49:11.143Z,10.87
2023-01-05T23:51:39.410Z,11.80
2023-01-05T23:54:07.877Z,13.03
2023-01-05T23:56:36.176Z,9.30
2023-01-05T23:59:07.936Z,8.70
